Terminal Aerodrome Forecast
Issued by NWS

Home | Current Version | Previous Version | Text Only | Print | Product List | Glossary Off
Versions: 1 2 3 4 5 6 7 8 9 10 11 12 13 14 15 16

366
FTUS43 KICT 212320
TAFHUT
TAF
KHUT 212320Z 2200/2224 26007KT P6SM SCT080 BKN150
     FM220200 21005KT P6SM BKN120
     FM221100 22007KT P6SM VCSH OVC080
     FM221300 24006KT P6SM VCTS BKN080CB
     FM221800 22008KT P6SM BKN050=

USA.gov is the U.S. government's official web portal to all federal, state and local government web resources and services.